FMS059 KORF-KLAS
Flight info
| Callsign | FMS059 |
|---|---|
| Flight time | N/A |
| Altitude | 25000 |
| Route | KORF NUTIY1 KELLE JEEVY DCT PINEE DCT ZITXI DCT FEEBE DCT JODPU DCT FEBEM DCT EDPIW DCT UDCOS DCT MOGIE DCT ZUPAB DCT TOKIE DCT KINGO DCT HELPS DCT TANZU DCT PGA BLAID20 KLAS |
| Aircraft | DC6/M-V/N |
Departure
| Time | 2026-04-22 17:44 |
|---|---|
| Airport | Norfolk International Airport (KORF) |
Arrival
| Time | N/A |
|---|---|
| Airport | Harry Reid International Airport (KLAS) |
| Time | Latitude | Longitude | Altitude | Speed | Heading |
|---|---|---|---|---|---|
| 2026-04-22 17:31 | 36.88783 | -76.20297 | 35 ft | 0 kts | 289° |
| 2026-04-22 17:34 | 36.88784 | -76.20298 | 35 ft | 0 kts | 284° |
| 2026-04-22 17:34 | 36.88781 | -76.20305 | 35 ft | 1 kts | 168° |
| 2026-04-22 17:35 | 36.88770 | -76.20267 | 34 ft | 13 kts | 102° |
| 2026-04-22 17:35 | 36.88783 | -76.20184 | 33 ft | 0 kts | 37° |
| 2026-04-22 17:36 | 36.88792 | -76.20176 | 33 ft | 8 kts | 19° |
| 2026-04-22 17:36 | 36.88847 | -76.20262 | 34 ft | 20 kts | 289° |
| 2026-04-22 17:37 | 36.88861 | -76.20315 | 34 ft | 6 kts | 288° |
| 2026-04-22 17:37 | 36.88883 | -76.20397 | 35 ft | 13 kts | 289° |
| 2026-04-22 17:37 | 36.88926 | -76.20504 | 38 ft | 15 kts | 303° |
| 2026-04-22 17:37 | 36.89010 | -76.20596 | 38 ft | 20 kts | 13° |
| 2026-04-22 17:38 | 36.89155 | -76.20489 | 35 ft | 23 kts | 31° |
| 2026-04-22 17:38 | 36.89304 | -76.20358 | 38 ft | 29 kts | 37° |
| 2026-04-22 17:38 | 36.89429 | -76.20237 | 39 ft | 20 kts | 37° |
| 2026-04-22 17:38 | 36.89540 | -76.20133 | 40 ft | 19 kts | 37° |
| 2026-04-22 17:39 | 36.89646 | -76.20030 | 38 ft | 19 kts | 38° |
| 2026-04-22 17:39 | 36.89754 | -76.19921 | 37 ft | 21 kts | 38° |
| 2026-04-22 17:39 | 36.89994 | -76.19690 | 35 ft | 20 kts | 38° |
| 2026-04-22 17:40 | 36.90097 | -76.19591 | 36 ft | 18 kts | 37° |
| 2026-04-22 17:40 | 36.90200 | -76.19516 | 37 ft | 18 kts | 26° |
| 2026-04-22 17:40 | 36.90308 | -76.19430 | 36 ft | 19 kts | 39° |
| 2026-04-22 17:40 | 36.90414 | -76.19329 | 36 ft | 20 kts | 38° |
| 2026-04-22 17:41 | 36.90528 | -76.19216 | 32 ft | 22 kts | 38° |
| 2026-04-22 17:41 | 36.90609 | -76.19097 | 32 ft | 14 kts | 91° |
| 2026-04-22 17:41 | 36.90584 | -76.19036 | 34 ft | 0 kts | 127° |
| 2026-04-22 17:41 | 36.90583 | -76.19034 | 34 ft | 0 kts | 128° |
| 2026-04-22 17:42 | 36.90579 | -76.19029 | 34 ft | 5 kts | 127° |
| 2026-04-22 17:42 | 36.90516 | -76.18982 | 35 ft | 12 kts | 186° |
| 2026-04-22 17:42 | 36.90482 | -76.18999 | 36 ft | 0 kts | 216° |
| 2026-04-22 17:42 | 36.90392 | -76.19088 | 37 ft | 39 kts | 219° |
| 2026-04-22 17:43 | 36.90088 | -76.19372 | 75 ft | 65 kts | 219° |
| 2026-04-22 17:43 | 36.89673 | -76.19736 | 203 ft | 81 kts | 222° |
| 2026-04-22 17:43 | 36.89193 | -76.20161 | 418 ft | 85 kts | 223° |
| 2026-04-22 17:43 | 36.88712 | -76.20641 | 526 ft | 98 kts | 220° |
| 2026-04-22 17:44 | 36.87989 | -76.21051 | 367 ft | 124 kts | 202° |
| 2026-04-22 17:44 | 36.87186 | -76.21374 | 582 ft | 117 kts | 205° |
| 2026-04-22 17:44 | 36.86394 | -76.21732 | 716 ft | 120 kts | 204° |
| 2026-04-22 17:44 | 36.85491 | -76.22009 | 522 ft | 144 kts | 190° |
| 2026-04-22 17:45 | 36.84431 | -76.21859 | 479 ft | 164 kts | 165° |
| 2026-04-22 17:45 | 36.83518 | -76.21109 | 715 ft | 155 kts | 136° |
| 2026-04-22 17:45 | 36.82952 | -76.20029 | 805 ft | 151 kts | 118° |
| 2026-04-22 17:45 | 36.82594 | -76.18856 | 1090 ft | 137 kts | 113° |
| 2026-04-22 17:46 | 36.82476 | -76.17752 | 1490 ft | 127 kts | 96° |
| 2026-04-22 17:46 | 36.82509 | -76.16552 | 1447 ft | 151 kts | 94° |
| 2026-04-22 17:46 | 36.82445 | -76.15114 | 1390 ft | 172 kts | 99° |
| 2026-04-22 17:46 | 36.82338 | -76.13657 | 1602 ft | 169 kts | 99° |
| 2026-04-22 17:47 | 36.82253 | -76.12208 | 1766 ft | 162 kts | 103° |
| 2026-04-22 17:47 | 36.81890 | -76.10919 | 1865 ft | 159 kts | 126° |
| 2026-04-22 17:47 | 36.81217 | -76.09747 | 1782 ft | 166 kts | 139° |
| 2026-04-22 17:47 | 36.80359 | -76.08999 | 1988 ft | 149 kts | 168° |
| 2026-04-22 17:48 | 36.79688 | -76.08862 | 2047 ft | 145 kts | 186° |
| 2026-04-22 17:48 | 36.78424 | -76.09292 | 2189 ft | 145 kts | 215° |
| 2026-04-22 17:48 | 36.77630 | -76.10124 | 2158 ft | 153 kts | 231° |
| 2026-04-22 17:48 | 36.77026 | -76.11136 | 2452 ft | 140 kts | 237° |
| 2026-04-22 17:49 | 36.76592 | -76.12196 | 2626 ft | 132 kts | 255° |
| 2026-04-22 17:49 | 36.76422 | -76.13327 | 2668 ft | 138 kts | 262° |
| 2026-04-22 17:49 | 36.76307 | -76.14422 | 2662 ft | 145 kts | 262° |
| 2026-04-22 17:49 | 36.76189 | -76.15726 | 2602 ft | 152 kts | 263° |
| 2026-04-22 17:50 | 36.76131 | -76.16468 | 2709 ft | 145 kts | 264° |
| 2026-04-22 17:50 | 36.76033 | -76.17720 | 2718 ft | 146 kts | 263° |
| 2026-04-22 17:50 | 36.75898 | -76.18973 | 2772 ft | 144 kts | 259° |
| 2026-04-22 17:50 | 36.75667 | -76.20195 | 2752 ft | 146 kts | 254° |
| 2026-04-22 17:51 | 36.75545 | -76.21403 | 2933 ft | 141 kts | 276° |
| 2026-04-22 17:51 | 36.75893 | -76.22519 | 3240 ft | 131 kts | 295° |
| 2026-04-22 17:51 | 36.76336 | -76.23419 | 3608 ft | 120 kts | 297° |
| 2026-04-22 17:51 | 36.76795 | -76.24331 | 3756 ft | 123 kts | 296° |
| 2026-04-22 17:52 | 36.77198 | -76.25221 | 4059 ft | 116 kts | 294° |
| 2026-04-22 17:52 | 36.77558 | -76.26138 | 4218 ft | 122 kts | 290° |
| 2026-04-22 17:52 | 36.77856 | -76.27142 | 4434 ft | 123 kts | 284° |
| 2026-04-22 17:52 | 36.78021 | -76.28149 | 4796 ft | 115 kts | 279° |
| 2026-04-22 17:53 | 36.78124 | -76.29208 | 4827 ft | 133 kts | 276° |
| 2026-04-22 17:53 | 36.78125 | -76.29226 | 4826 ft | 134 kts | 276° |
| 2026-04-22 17:55 | 36.78137 | -76.29412 | 4823 ft | 137 kts | 275° |
| 2026-04-22 17:55 | 36.78245 | -76.31075 | 4887 ft | 149 kts | 275° |
| 2026-04-22 17:55 | 36.78293 | -76.32390 | 4953 ft | 151 kts | 272° |
| 2026-04-22 17:55 | 36.78244 | -76.33645 | 5191 ft | 144 kts | 265° |
| 2026-04-22 17:56 | 36.78213 | -76.34899 | 5265 ft | 148 kts | 273° |
| 2026-04-22 17:56 | 36.78291 | -76.36209 | 5299 ft | 152 kts | 277° |
| 2026-04-22 17:56 | 36.78429 | -76.37487 | 5514 ft | 146 kts | 279° |
| 2026-04-22 17:56 | 36.78578 | -76.38759 | 5588 ft | 150 kts | 277° |
| 2026-04-22 17:57 | 36.78671 | -76.40059 | 5667 ft | 150 kts | 274° |
| 2026-04-22 17:57 | 36.78731 | -76.41338 | 5806 ft | 147 kts | 277° |
| 2026-04-22 17:57 | 36.78871 | -76.42633 | 5804 ft | 154 kts | 278° |